sensor_id;sensor_type;location;lat;lon;timestamp;temperature;humidity
18898;DHT22;9581;49.484;8.556;2024-02-16T00:02:12;13.20;99.90
18898;DHT22;9581;49.484;8.556;2024-02-16T00:04:41;13.10;99.90
18898;DHT22;9581;49.484;8.556;2024-02-16T00:07:07;13.10;99.90
18898;DHT22;9581;49.484;8.556;2024-02-16T00:09:34;13.10;99.90
18898;DHT22;9581;49.484;8.556;2024-02-16T00:12:02;13.10;99.90
18898;DHT22;9581;49.484;8.556;2024-02-16T00:14:29;13.00;99.90
18898;DHT22;9581;49.484;8.556;2024-02-16T00:16:56;13.00;99.90
18898;DHT22;9581;49.484;8.556;2024-02-16T00:19:23;13.00;99.90
18898;DHT22;9581;49.484;8.556;2024-02-16T00:21:50;13.10;99.90
18898;DHT22;9581;49.484;8.556;2024-02-16T00:24:17;13.00;99.90
18898;DHT22;9581;49.484;8.556;2024-02-16T00:26:44;13.00;99.90
18898;DHT22;9581;49.484;8.556;2024-02-16T00:29:13;13.00;99.90
18898;DHT22;9581;49.484;8.556;2024-02-16T00:31:40;13.00;99.90
18898;DHT22;9581;49.484;8.556;2024-02-16T00:34:07;13.00;99.90
18898;DHT22;9581;49.484;8.556;2024-02-16T00:36:33;12.90;99.90
18898;DHT22;9581;49.484;8.556;2024-02-16T00:39:00;12.90;99.90
18898;DHT22;9581;49.484;8.556;2024-02-16T00:41:29;12.90;99.90
18898;DHT22;9581;49.484;8.556;2024-02-16T00:43:56;12.90;99.90
18898;DHT22;9581;49.484;8.556;2024-02-16T00:46:24;12.80;99.90
18898;DHT22;9581;49.484;8.556;2024-02-16T00:48:51;12.70;99.90
18898;DHT22;9581;49.484;8.556;2024-02-16T00:51:18;12.70;99.90
18898;DHT22;9581;49.484;8.556;2024-02-16T00:53:44;12.70;99.90
18898;DHT22;9581;49.484;8.556;2024-02-16T00:56:12;12.70;99.90
18898;DHT22;9581;49.484;8.556;2024-02-16T00:58:40;12.70;99.90
18898;DHT22;9581;49.484;8.556;2024-02-16T01:01:08;12.60;99.90
18898;DHT22;9581;49.484;8.556;2024-02-16T01:03:38;12.50;99.90
18898;DHT22;9581;49.484;8.556;2024-02-16T01:06:06;12.50;99.90
18898;DHT22;9581;49.484;8.556;2024-02-16T01:08:34;12.50;99.90
18898;DHT22;9581;49.484;8.556;2024-02-16T01:11:01;12.50;99.90
18898;DHT22;9581;49.484;8.556;2024-02-16T01:13:27;12.50;99.90
18898;DHT22;9581;49.484;8.556;2024-02-16T01:15:54;12.50;99.90
18898;DHT22;9581;49.484;8.556;2024-02-16T01:18:21;12.50;99.90
18898;DHT22;9581;49.484;8.556;2024-02-16T01:20:49;12.50;99.90
18898;DHT22;9581;49.484;8.556;2024-02-16T01:23:16;12.50;99.90
18898;DHT22;9581;49.484;8.556;2024-02-16T01:25:43;12.50;99.90
18898;DHT22;9581;49.484;8.556;2024-02-16T01:28:10;12.60;99.90
18898;DHT22;9581;49.484;8.556;2024-02-16T01:30:38;12.60;99.90
18898;DHT22;9581;49.484;8.556;2024-02-16T01:33:05;12.60;99.90
18898;DHT22;9581;49.484;8.556;2024-02-16T01:35:32;12.60;99.90
18898;DHT22;9581;49.484;8.556;2024-02-16T01:38:00;12.60;99.90
18898;DHT22;9581;49.484;8.556;2024-02-16T01:40:28;12.60;99.90
18898;DHT22;9581;49.484;8.556;2024-02-16T01:42:54;12.60;99.90
18898;DHT22;9581;49.484;8.556;2024-02-16T01:45:21;12.60;99.90
18898;DHT22;9581;49.484;8.556;2024-02-16T01:47:51;12.60;99.90
18898;DHT22;9581;49.484;8.556;2024-02-16T01:50:18;12.60;99.90
18898;DHT22;9581;49.484;8.556;2024-02-16T01:52:48;12.60;99.90
18898;DHT22;9581;49.484;8.556;2024-02-16T01:55:17;12.60;99.90
18898;DHT22;9581;49.484;8.556;2024-02-16T01:57:45;12.60;99.90
18898;DHT22;9581;49.484;8.556;2024-02-16T02:00:12;12.60;99.90
18898;DHT22;9581;49.484;8.556;2024-02-16T02:02:41;12.70;99.90
18898;DHT22;9581;49.484;8.556;2024-02-16T02:05:10;12.60;99.90
18898;DHT22;9581;49.484;8.556;2024-02-16T02:07:37;12.60;99.90
18898;DHT22;9581;49.484;8.556;2024-02-16T02:10:04;12.60;99.90
18898;DHT22;9581;49.484;8.556;2024-02-16T02:12:32;12.60;99.90
18898;DHT22;9581;49.484;8.556;2024-02-16T02:14:59;12.60;99.90
18898;DHT22;9581;49.484;8.556;2024-02-16T02:17:26;12.60;99.90
18898;DHT22;9581;49.484;8.556;2024-02-16T02:19:52;12.60;99.90
18898;DHT22;9581;49.484;8.556;2024-02-16T02:22:21;12.60;99.90
18898;DHT22;9581;49.484;8.556;2024-02-16T02:24:48;12.60;99.90
18898;DHT22;9581;49.484;8.556;2024-02-16T02:27:15;12.50;99.90
18898;DHT22;9581;49.484;8.556;2024-02-16T02:29:42;12.50;99.90
18898;DHT22;9581;49.484;8.556;2024-02-16T02:32:09;12.60;99.90
18898;DHT22;9581;49.484;8.556;2024-02-16T02:34:36;12.60;99.90
18898;DHT22;9581;49.484;8.556;2024-02-16T02:37:03;12.60;99.90
18898;DHT22;9581;49.484;8.556;2024-02-16T02:39:32;12.50;99.90
18898;DHT22;9581;49.484;8.556;2024-02-16T02:41:59;12.60;99.90
18898;DHT22;9581;49.484;8.556;2024-02-16T02:44:26;12.50;99.90
18898;DHT22;9581;49.484;8.556;2024-02-16T02:46:52;12.50;99.90
18898;DHT22;9581;49.484;8.556;2024-02-16T02:49:19;12.60;99.90
18898;DHT22;9581;49.484;8.556;2024-02-16T02:51:46;12.60;99.90
18898;DHT22;9581;49.484;8.556;2024-02-16T02:54:13;12.60;99.90
18898;DHT22;9581;49.484;8.556;2024-02-16T02:56:41;12.60;99.90
18898;DHT22;9581;49.484;8.556;2024-02-16T02:59:08;12.50;99.90
18898;DHT22;9581;49.484;8.556;2024-02-16T03:01:36;12.50;99.90
18898;DHT22;9581;49.484;8.556;2024-02-16T03:04:03;12.60;99.90
18898;DHT22;9581;49.484;8.556;2024-02-16T03:06:30;12.50;99.90
18898;DHT22;9581;49.484;8.556;2024-02-16T03:08:57;12.50;99.90
18898;DHT22;9581;49.484;8.556;2024-02-16T03:11:23;12.50;99.90
18898;DHT22;9581;49.484;8.556;2024-02-16T03:13:52;12.50;99.90
18898;DHT22;9581;49.484;8.556;2024-02-16T03:16:19;12.50;99.90
18898;DHT22;9581;49.484;8.556;2024-02-16T03:18:45;12.50;99.90
18898;DHT22;9581;49.484;8.556;2024-02-16T03:21:13;12.60;99.90
18898;DHT22;9581;49.484;8.556;2024-02-16T03:23:41;12.50;99.90
18898;DHT22;9581;49.484;8.556;2024-02-16T03:26:14;12.50;99.90
18898;DHT22;9581;49.484;8.556;2024-02-16T03:28:42;12.50;99.90
18898;DHT22;9581;49.484;8.556;2024-02-16T03:31:16;12.50;99.90
18898;DHT22;9581;49.484;8.556;2024-02-16T03:33:43;12.40;99.90
18898;DHT22;9581;49.484;8.556;2024-02-16T03:36:10;12.20;99.90
18898;DHT22;9581;49.484;8.556;2024-02-16T03:38:37;12.10;99.90
18898;DHT22;9581;49.484;8.556;2024-02-16T03:41:04;12.10;99.90
18898;DHT22;9581;49.484;8.556;2024-02-16T03:43:31;12.10;99.90
18898;DHT22;9581;49.484;8.556;2024-02-16T03:45:58;12.10;99.90
18898;DHT22;9581;49.484;8.556;2024-02-16T03:48:27;12.00;99.90
18898;DHT22;9581;49.484;8.556;2024-02-16T03:50:54;12.10;99.90
18898;DHT22;9581;49.484;8.556;2024-02-16T03:53:21;12.00;99.90
18898;DHT22;9581;49.484;8.556;2024-02-16T03:55:47;12.00;99.90
18898;DHT22;9581;49.484;8.556;2024-02-16T03:58:14;12.00;99.90
18898;DHT22;9581;49.484;8.556;2024-02-16T04:00:41;11.90;99.90
18898;DHT22;9581;49.484;8.556;2024-02-16T04:03:07;11.90;99.90
18898;DHT22;9581;49.484;8.556;2024-02-16T04:05:38;11.90;99.90
18898;DHT22;9581;49.484;8.556;2024-02-16T04:08:05;11.80;99.90
18898;DHT22;9581;49.484;8.556;2024-02-16T04:10:32;11.90;99.90
18898;DHT22;9581;49.484;8.556;2024-02-16T04:12:59;11.90;99.90
18898;DHT22;9581;49.484;8.556;2024-02-16T04:15:26;11.80;99.90
18898;DHT22;9581;49.484;8.556;2024-02-16T04:17:53;11.80;99.90
18898;DHT22;9581;49.484;8.556;2024-02-16T04:20:20;11.70;99.90
18898;DHT22;9581;49.484;8.556;2024-02-16T04:22:48;11.70;99.90
18898;DHT22;9581;49.484;8.556;2024-02-16T04:25:15;11.60;99.90
18898;DHT22;9581;49.484;8.556;2024-02-16T04:27:41;11.60;99.90
18898;DHT22;9581;49.484;8.556;2024-02-16T04:30:09;11.60;99.90
18898;DHT22;9581;49.484;8.556;2024-02-16T04:32:37;11.50;99.90
18898;DHT22;9581;49.484;8.556;2024-02-16T04:35:05;11.50;99.90
18898;DHT22;9581;49.484;8.556;2024-02-16T04:37:31;11.40;99.90
18898;DHT22;9581;49.484;8.556;2024-02-16T04:40:00;11.40;99.90
18898;DHT22;9581;49.484;8.556;2024-02-16T04:42:27;11.40;99.90
18898;DHT22;9581;49.484;8.556;2024-02-16T04:44:53;11.30;99.90
18898;DHT22;9581;49.484;8.556;2024-02-16T04:47:20;11.40;99.90
18898;DHT22;9581;49.484;8.556;2024-02-16T04:49:47;11.50;99.90
18898;DHT22;9581;49.484;8.556;2024-02-16T04:52:13;11.40;99.90
18898;DHT22;9581;49.484;8.556;2024-02-16T04:54:40;11.40;99.90
18898;DHT22;9581;49.484;8.556;2024-02-16T04:57:08;11.40;99.90
18898;DHT22;9581;49.484;8.556;2024-02-16T04:59:35;11.30;99.90
18898;DHT22;9581;49.484;8.556;2024-02-16T05:02:02;11.40;99.90
18898;DHT22;9581;49.484;8.556;2024-02-16T05:04:29;11.30;99.90
18898;DHT22;9581;49.484;8.556;2024-02-16T05:06:56;11.30;99.90
18898;DHT22;9581;49.484;8.556;2024-02-16T05:09:23;11.30;99.90
18898;DHT22;9581;49.484;8.556;2024-02-16T05:11:52;11.30;99.90
18898;DHT22;9581;49.484;8.556;2024-02-16T05:14:20;11.30;99.90
18898;DHT22;9581;49.484;8.556;2024-02-16T05:16:47;11.30;99.90
18898;DHT22;9581;49.484;8.556;2024-02-16T05:19:14;11.30;99.90
18898;DHT22;9581;49.484;8.556;2024-02-16T05:21:40;11.30;99.90
18898;DHT22;9581;49.484;8.556;2024-02-16T05:24:07;11.30;99.90
18898;DHT22;9581;49.484;8.556;2024-02-16T05:26:34;11.30;99.90
18898;DHT22;9581;49.484;8.556;2024-02-16T05:29:01;11.30;99.90
18898;DHT22;9581;49.484;8.556;2024-02-16T05:31:29;11.30;99.90
18898;DHT22;9581;49.484;8.556;2024-02-16T05:34:03;11.30;99.90
18898;DHT22;9581;49.484;8.556;2024-02-16T05:36:29;11.30;99.90
18898;DHT22;9581;49.484;8.556;2024-02-16T05:39:04;11.30;99.90
18898;DHT22;9581;49.484;8.556;2024-02-16T05:41:45;11.30;99.90
18898;DHT22;9581;49.484;8.556;2024-02-16T05:44:12;11.50;99.90
18898;DHT22;9581;49.484;8.556;2024-02-16T05:46:40;11.50;99.90
18898;DHT22;9581;49.484;8.556;2024-02-16T05:49:09;11.60;99.90
18898;DHT22;9581;49.484;8.556;2024-02-16T05:51:36;11.70;99.90
18898;DHT22;9581;49.484;8.556;2024-02-16T05:54:10;11.70;99.90
18898;DHT22;9581;49.484;8.556;2024-02-16T05:56:37;11.60;99.90
18898;DHT22;9581;49.484;8.556;2024-02-16T05:59:06;11.70;99.90
18898;DHT22;9581;49.484;8.556;2024-02-16T06:01:33;11.70;99.90
18898;DHT22;9581;49.484;8.556;2024-02-16T06:04:01;11.70;99.90
18898;DHT22;9581;49.484;8.556;2024-02-16T06:06:28;11.80;99.90
18898;DHT22;9581;49.484;8.556;2024-02-16T06:08:55;11.80;99.90
18898;DHT22;9581;49.484;8.556;2024-02-16T06:11:22;11.80;99.90
18898;DHT22;9581;49.484;8.556;2024-02-16T06:13:48;11.80;99.90
18898;DHT22;9581;49.484;8.556;2024-02-16T06:16:15;11.80;99.90
18898;DHT22;9581;49.484;8.556;2024-02-16T06:18:42;11.90;99.90
18898;DHT22;9581;49.484;8.556;2024-02-16T06:21:10;11.80;99.90
18898;DHT22;9581;49.484;8.556;2024-02-16T06:23:38;11.90;99.90
18898;DHT22;9581;49.484;8.556;2024-02-16T06:26:06;11.90;99.90
18898;DHT22;9581;49.484;8.556;2024-02-16T06:28:33;11.90;99.90
18898;DHT22;9581;49.484;8.556;2024-02-16T06:31:00;11.80;99.90
18898;DHT22;9581;49.484;8.556;2024-02-16T06:33:26;11.90;99.90
18898;DHT22;9581;49.484;8.556;2024-02-16T06:35:53;11.90;99.90
18898;DHT22;9581;49.484;8.556;2024-02-16T06:38:21;11.90;99.90
18898;DHT22;9581;49.484;8.556;2024-02-16T06:40:48;11.90;99.90
18898;DHT22;9581;49.484;8.556;2024-02-16T06:43:14;11.90;99.90
18898;DHT22;9581;49.484;8.556;2024-02-16T06:45:41;11.90;99.90
18898;DHT22;9581;49.484;8.556;2024-02-16T06:48:08;11.90;99.90
18898;DHT22;9581;49.484;8.556;2024-02-16T06:50:35;11.90;99.90
18898;DHT22;9581;49.484;8.556;2024-02-16T06:53:01;11.90;99.90
18898;DHT22;9581;49.484;8.556;2024-02-16T06:55:29;12.00;99.90
18898;DHT22;9581;49.484;8.556;2024-02-16T06:57:56;12.00;99.90
18898;DHT22;9581;49.484;8.556;2024-02-16T07:00:23;12.00;99.90
18898;DHT22;9581;49.484;8.556;2024-02-16T07:02:49;12.00;99.90
18898;DHT22;9581;49.484;8.556;2024-02-16T07:05:16;12.00;99.90
18898;DHT22;9581;49.484;8.556;2024-02-16T07:07:43;12.10;99.90
18898;DHT22;9581;49.484;8.556;2024-02-16T07:10:10;12.10;99.90
18898;DHT22;9581;49.484;8.556;2024-02-16T07:12:40;12.10;99.90
18898;DHT22;9581;49.484;8.556;2024-02-16T07:15:07;12.20;99.90
18898;DHT22;9581;49.484;8.556;2024-02-16T07:17:35;12.20;99.90
18898;DHT22;9581;49.484;8.556;2024-02-16T07:20:02;12.20;99.90
18898;DHT22;9581;49.484;8.556;2024-02-16T07:22:30;12.10;99.90
18898;DHT22;9581;49.484;8.556;2024-02-16T07:24:57;12.10;99.90
18898;DHT22;9581;49.484;8.556;2024-02-16T07:27:25;12.00;99.90
18898;DHT22;9581;49.484;8.556;2024-02-16T07:29:53;12.00;99.90
18898;DHT22;9581;49.484;8.556;2024-02-16T07:32:20;11.90;99.90
18898;DHT22;9581;49.484;8.556;2024-02-16T07:34:47;11.90;99.90
18898;DHT22;9581;49.484;8.556;2024-02-16T07:37:14;11.90;99.90
18898;DHT22;9581;49.484;8.556;2024-02-16T07:39:41;12.00;99.90
18898;DHT22;9581;49.484;8.556;2024-02-16T07:42:08;12.00;99.90
18898;DHT22;9581;49.484;8.556;2024-02-16T07:44:35;12.00;99.90
18898;DHT22;9581;49.484;8.556;2024-02-16T07:47:03;12.00;99.90
18898;DHT22;9581;49.484;8.556;2024-02-16T07:49:30;11.90;99.90
18898;DHT22;9581;49.484;8.556;2024-02-16T07:51:57;11.90;99.90
18898;DHT22;9581;49.484;8.556;2024-02-16T07:54:24;11.90;99.90
18898;DHT22;9581;49.484;8.556;2024-02-16T07:56:51;11.80;99.90
18898;DHT22;9581;49.484;8.556;2024-02-16T07:59:17;11.90;99.90
18898;DHT22;9581;49.484;8.556;2024-02-16T08:01:45;11.90;99.90
18898;DHT22;9581;49.484;8.556;2024-02-16T08:04:13;12.00;99.90
18898;DHT22;9581;49.484;8.556;2024-02-16T08:06:40;12.00;99.90
18898;DHT22;9581;49.484;8.556;2024-02-16T08:09:06;11.90;99.90
18898;DHT22;9581;49.484;8.556;2024-02-16T08:11:33;12.00;99.90
18898;DHT22;9581;49.484;8.556;2024-02-16T08:14:00;12.00;99.90
18898;DHT22;9581;49.484;8.556;2024-02-16T08:16:27;12.10;99.90
18898;DHT22;9581;49.484;8.556;2024-02-16T08:18:53;12.10;99.90
18898;DHT22;9581;49.484;8.556;2024-02-16T08:21:22;12.20;99.90
18898;DHT22;9581;49.484;8.556;2024-02-16T08:23:48;12.20;99.90
18898;DHT22;9581;49.484;8.556;2024-02-16T08:26:15;12.30;99.90
18898;DHT22;9581;49.484;8.556;2024-02-16T08:28:43;12.30;99.90
18898;DHT22;9581;49.484;8.556;2024-02-16T08:31:10;12.40;99.90
18898;DHT22;9581;49.484;8.556;2024-02-16T08:33:41;12.50;99.90
18898;DHT22;9581;49.484;8.556;2024-02-16T08:36:08;12.60;99.90
18898;DHT22;9581;49.484;8.556;2024-02-16T08:38:37;12.70;99.90
18898;DHT22;9581;49.484;8.556;2024-02-16T08:41:05;12.80;99.90
18898;DHT22;9581;49.484;8.556;2024-02-16T08:43:31;13.00;99.90
18898;DHT22;9581;49.484;8.556;2024-02-16T08:45:58;13.00;99.90
18898;DHT22;9581;49.484;8.556;2024-02-16T08:48:25;13.00;99.90
18898;DHT22;9581;49.484;8.556;2024-02-16T08:50:51;12.90;99.90
18898;DHT22;9581;49.484;8.556;2024-02-16T08:53:18;13.10;99.90
18898;DHT22;9581;49.484;8.556;2024-02-16T08:55:46;13.20;99.90
18898;DHT22;9581;49.484;8.556;2024-02-16T08:58:13;13.20;99.90
18898;DHT22;9581;49.484;8.556;2024-02-16T09:00:40;13.20;99.90
18898;DHT22;9581;49.484;8.556;2024-02-16T09:03:06;13.30;99.90
18898;DHT22;9581;49.484;8.556;2024-02-16T09:05:34;13.40;99.90
18898;DHT22;9581;49.484;8.556;2024-02-16T09:08:00;13.50;99.90
18898;DHT22;9581;49.484;8.556;2024-02-16T09:10:28;13.60;99.90
18898;DHT22;9581;49.484;8.556;2024-02-16T09:12:56;13.70;99.90
18898;DHT22;9581;49.484;8.556;2024-02-16T09:15:23;13.50;99.90
18898;DHT22;9581;49.484;8.556;2024-02-16T09:17:50;13.50;99.90
18898;DHT22;9581;49.484;8.556;2024-02-16T09:20:16;13.50;99.90
18898;DHT22;9581;49.484;8.556;2024-02-16T09:22:47;13.60;99.90
18898;DHT22;9581;49.484;8.556;2024-02-16T09:25:14;13.60;99.90
18898;DHT22;9581;49.484;8.556;2024-02-16T09:27:41;13.80;99.90
18898;DHT22;9581;49.484;8.556;2024-02-16T09:30:12;13.90;99.90
18898;DHT22;9581;49.484;8.556;2024-02-16T09:32:39;14.20;99.90
18898;DHT22;9581;49.484;8.556;2024-02-16T09:35:06;14.00;99.90
18898;DHT22;9581;49.484;8.556;2024-02-16T09:37:34;13.90;99.90
18898;DHT22;9581;49.484;8.556;2024-02-16T09:40:01;14.20;99.90
18898;DHT22;9581;49.484;8.556;2024-02-16T09:42:29;14.50;99.90
18898;DHT22;9581;49.484;8.556;2024-02-16T09:44:56;15.00;99.90
18898;DHT22;9581;49.484;8.556;2024-02-16T09:47:24;15.10;99.90
18898;DHT22;9581;49.484;8.556;2024-02-16T09:49:54;15.80;99.90
18898;DHT22;9581;49.484;8.556;2024-02-16T09:52:21;16.20;99.90
18898;DHT22;9581;49.484;8.556;2024-02-16T09:54:48;17.40;99.90
18898;DHT22;9581;49.484;8.556;2024-02-16T09:57:16;18.10;99.90
18898;DHT22;9581;49.484;8.556;2024-02-16T09:59:43;19.40;99.90
18898;DHT22;9581;49.484;8.556;2024-02-16T10:02:11;20.90;99.90
18898;DHT22;9581;49.484;8.556;2024-02-16T10:04:39;23.10;99.90
18898;DHT22;9581;49.484;8.556;2024-02-16T10:07:06;23.40;99.90
18898;DHT22;9581;49.484;8.556;2024-02-16T10:09:32;21.80;99.90
18898;DHT22;9581;49.484;8.556;2024-02-16T10:11:59;21.90;99.90
18898;DHT22;9581;49.484;8.556;2024-02-16T10:14:26;24.60;99.90
18898;DHT22;9581;49.484;8.556;2024-02-16T10:17:00;24.70;99.90
18898;DHT22;9581;49.484;8.556;2024-02-16T10:19:28;23.60;99.90
18898;DHT22;9581;49.484;8.556;2024-02-16T10:22:07;25.40;99.90
18898;DHT22;9581;49.484;8.556;2024-02-16T10:24:34;26.90;99.90
18898;DHT22;9581;49.484;8.556;2024-02-16T10:27:00;26.50;98.60
18898;DHT22;9581;49.484;8.556;2024-02-16T10:29:28;26.40;99.90
18898;DHT22;9581;49.484;8.556;2024-02-16T10:31:55;27.90;96.70
18898;DHT22;9581;49.484;8.556;2024-02-16T10:34:24;28.40;96.30
18898;DHT22;9581;49.484;8.556;2024-02-16T10:36:51;27.70;95.90
18898;DHT22;9581;49.484;8.556;2024-02-16T10:39:19;27.00;95.10
18898;DHT22;9581;49.484;8.556;2024-02-16T10:41:47;26.10;95.60
18898;DHT22;9581;49.484;8.556;2024-02-16T10:44:15;22.80;97.20
18898;DHT22;9581;49.484;8.556;2024-02-16T10:46:42;24.60;98.00
18898;DHT22;9581;49.484;8.556;2024-02-16T10:49:08;23.50;96.90
18898;DHT22;9581;49.484;8.556;2024-02-16T10:51:37;20.00;99.50
18898;DHT22;9581;49.484;8.556;2024-02-16T10:54:06;20.50;99.90
18898;DHT22;9581;49.484;8.556;2024-02-16T10:56:35;20.90;99.90
18898;DHT22;9581;49.484;8.556;2024-02-16T10:59:02;21.90;99.90
18898;DHT22;9581;49.484;8.556;2024-02-16T11:01:32;22.30;99.20
18898;DHT22;9581;49.484;8.556;2024-02-16T11:04:01;23.60;99.50
18898;DHT22;9581;49.484;8.556;2024-02-16T11:06:28;25.00;98.90
18898;DHT22;9581;49.484;8.556;2024-02-16T11:09:01;24.30;97.90
18898;DHT22;9581;49.484;8.556;2024-02-16T11:11:34;23.90;98.10
18898;DHT22;9581;49.484;8.556;2024-02-16T11:14:14;24.40;97.50
18898;DHT22;9581;49.484;8.556;2024-02-16T11:16:44;24.60;97.30
18898;DHT22;9581;49.484;8.556;2024-02-16T11:19:11;24.60;96.90
18898;DHT22;9581;49.484;8.556;2024-02-16T11:21:39;23.70;97.30
18898;DHT22;9581;49.484;8.556;2024-02-16T11:24:07;23.60;97.70
18898;DHT22;9581;49.484;8.556;2024-02-16T11:26:44;23.10;98.10
18898;DHT22;9581;49.484;8.556;2024-02-16T11:29:11;23.30;97.70
18898;DHT22;9581;49.484;8.556;2024-02-16T11:31:39;23.40;97.70
18898;DHT22;9581;49.484;8.556;2024-02-16T11:34:06;24.00;97.50
18898;DHT22;9581;49.484;8.556;2024-02-16T11:36:32;24.20;97.40
18898;DHT22;9581;49.484;8.556;2024-02-16T11:39:00;21.90;97.50
18898;DHT22;9581;49.484;8.556;2024-02-16T11:41:27;21.10;98.90
18898;DHT22;9581;49.484;8.556;2024-02-16T11:44:00;21.20;99.10
18898;DHT22;9581;49.484;8.556;2024-02-16T11:46:33;20.90;99.30
18898;DHT22;9581;49.484;8.556;2024-02-16T11:49:05;20.30;99.60
18898;DHT22;9581;49.484;8.556;2024-02-16T11:51:32;19.60;99.90
18898;DHT22;9581;49.484;8.556;2024-02-16T11:53:59;20.10;99.90
18898;DHT22;9581;49.484;8.556;2024-02-16T11:56:26;19.90;99.90
18898;DHT22;9581;49.484;8.556;2024-02-16T11:58:53;19.90;99.90
18898;DHT22;9581;49.484;8.556;2024-02-16T12:01:22;20.30;99.90
18898;DHT22;9581;49.484;8.556;2024-02-16T12:03:50;20.00;99.90
18898;DHT22;9581;49.484;8.556;2024-02-16T12:06:20;20.40;99.90
18898;DHT22;9581;49.484;8.556;2024-02-16T12:08:47;20.00;99.90
18898;DHT22;9581;49.484;8.556;2024-02-16T12:11:14;20.20;99.90
18898;DHT22;9581;49.484;8.556;2024-02-16T12:13:40;20.00;99.90
18898;DHT22;9581;49.484;8.556;2024-02-16T12:16:07;20.00;99.90
18898;DHT22;9581;49.484;8.556;2024-02-16T12:18:35;19.80;99.90
18898;DHT22;9581;49.484;8.556;2024-02-16T12:21:03;19.70;99.90
18898;DHT22;9581;49.484;8.556;2024-02-16T12:23:31;19.60;99.90
18898;DHT22;9581;49.484;8.556;2024-02-16T12:25:59;19.80;99.90
18898;DHT22;9581;49.484;8.556;2024-02-16T12:28:27;19.80;99.90
18898;DHT22;9581;49.484;8.556;2024-02-16T12:30:55;19.60;99.90
18898;DHT22;9581;49.484;8.556;2024-02-16T12:33:21;19.80;99.90
18898;DHT22;9581;49.484;8.556;2024-02-16T12:35:50;19.80;99.90
18898;DHT22;9581;49.484;8.556;2024-02-16T12:38:17;19.90;99.90
18898;DHT22;9581;49.484;8.556;2024-02-16T12:40:45;19.30;99.90
18898;DHT22;9581;49.484;8.556;2024-02-16T12:43:11;19.60;99.90
18898;DHT22;9581;49.484;8.556;2024-02-16T12:45:39;19.20;99.90
18898;DHT22;9581;49.484;8.556;2024-02-16T12:48:06;19.20;99.90
18898;DHT22;9581;49.484;8.556;2024-02-16T12:50:35;19.20;99.90
18898;DHT22;9581;49.484;8.556;2024-02-16T12:53:04;19.00;99.90
18898;DHT22;9581;49.484;8.556;2024-02-16T12:55:31;19.00;99.90
18898;DHT22;9581;49.484;8.556;2024-02-16T12:57:58;18.70;99.90
18898;DHT22;9581;49.484;8.556;2024-02-16T13:00:24;18.70;99.90
18898;DHT22;9581;49.484;8.556;2024-02-16T13:02:51;18.60;99.90
18898;DHT22;9581;49.484;8.556;2024-02-16T13:05:18;18.70;99.90
18898;DHT22;9581;49.484;8.556;2024-02-16T13:07:45;19.10;99.90
18898;DHT22;9581;49.484;8.556;2024-02-16T13:10:13;19.20;99.90
18898;DHT22;9581;49.484;8.556;2024-02-16T13:12:39;19.10;99.90
18898;DHT22;9581;49.484;8.556;2024-02-16T13:15:08;19.00;99.90
18898;DHT22;9581;49.484;8.556;2024-02-16T13:17:35;19.00;99.90
18898;DHT22;9581;49.484;8.556;2024-02-16T13:20:02;19.20;99.90
18898;DHT22;9581;49.484;8.556;2024-02-16T13:22:34;19.20;99.90
18898;DHT22;9581;49.484;8.556;2024-02-16T13:25:02;19.50;99.90
18898;DHT22;9581;49.484;8.556;2024-02-16T13:27:31;19.30;99.90
18898;DHT22;9581;49.484;8.556;2024-02-16T13:29:57;19.10;99.90
18898;DHT22;9581;49.484;8.556;2024-02-16T13:32:24;19.00;99.90
18898;DHT22;9581;49.484;8.556;2024-02-16T13:34:51;19.00;99.90
18898;DHT22;9581;49.484;8.556;2024-02-16T13:37:18;19.00;99.90
18898;DHT22;9581;49.484;8.556;2024-02-16T13:39:44;18.90;99.90
18898;DHT22;9581;49.484;8.556;2024-02-16T13:42:12;18.80;99.90
18898;DHT22;9581;49.484;8.556;2024-02-16T13:44:40;18.90;99.90
18898;DHT22;9581;49.484;8.556;2024-02-16T13:47:07;18.80;99.90
18898;DHT22;9581;49.484;8.556;2024-02-16T13:49:34;18.90;99.90
18898;DHT22;9581;49.484;8.556;2024-02-16T13:52:00;18.60;99.90
18898;DHT22;9581;49.484;8.556;2024-02-16T13:54:28;18.80;99.90
18898;DHT22;9581;49.484;8.556;2024-02-16T13:56:55;18.50;99.90
18898;DHT22;9581;49.484;8.556;2024-02-16T13:59:21;18.20;99.90
18898;DHT22;9581;49.484;8.556;2024-02-16T14:01:50;18.20;99.90
18898;DHT22;9581;49.484;8.556;2024-02-16T14:04:16;18.10;99.90
18898;DHT22;9581;49.484;8.556;2024-02-16T14:06:43;18.00;99.90
18898;DHT22;9581;49.484;8.556;2024-02-16T14:09:10;17.80;99.90
18898;DHT22;9581;49.484;8.556;2024-02-16T14:11:39;17.70;99.90
18898;DHT22;9581;49.484;8.556;2024-02-16T14:14:07;17.60;99.90
18898;DHT22;9581;49.484;8.556;2024-02-16T14:16:34;17.50;99.90
18898;DHT22;9581;49.484;8.556;2024-02-16T14:19:02;17.50;99.90
18898;DHT22;9581;49.484;8.556;2024-02-16T14:21:29;17.60;99.90
18898;DHT22;9581;49.484;8.556;2024-02-16T14:23:55;17.60;99.90
18898;DHT22;9581;49.484;8.556;2024-02-16T14:26:22;17.40;99.90
18898;DHT22;9581;49.484;8.556;2024-02-16T14:28:49;17.30;99.90
18898;DHT22;9581;49.484;8.556;2024-02-16T14:31:16;17.30;99.90
18898;DHT22;9581;49.484;8.556;2024-02-16T14:33:46;17.20;99.90
18898;DHT22;9581;49.484;8.556;2024-02-16T14:36:14;17.30;99.90
18898;DHT22;9581;49.484;8.556;2024-02-16T14:38:40;17.10;99.90
18898;DHT22;9581;49.484;8.556;2024-02-16T14:41:07;17.10;99.90
18898;DHT22;9581;49.484;8.556;2024-02-16T14:43:35;16.70;99.90
18898;DHT22;9581;49.484;8.556;2024-02-16T14:46:03;16.60;99.90
18898;DHT22;9581;49.484;8.556;2024-02-16T14:48:30;16.40;99.90
18898;DHT22;9581;49.484;8.556;2024-02-16T14:50:57;16.20;99.90
18898;DHT22;9581;49.484;8.556;2024-02-16T14:53:25;16.30;99.90
18898;DHT22;9581;49.484;8.556;2024-02-16T14:55:52;16.10;99.90
18898;DHT22;9581;49.484;8.556;2024-02-16T14:58:19;16.00;99.90
18898;DHT22;9581;49.484;8.556;2024-02-16T15:00:46;16.00;99.90
18898;DHT22;9581;49.484;8.556;2024-02-16T15:03:15;16.00;99.90
18898;DHT22;9581;49.484;8.556;2024-02-16T15:05:44;15.90;99.90
18898;DHT22;9581;49.484;8.556;2024-02-16T15:08:11;15.90;99.90
18898;DHT22;9581;49.484;8.556;2024-02-16T15:10:39;16.00;99.90
18898;DHT22;9581;49.484;8.556;2024-02-16T15:13:08;15.80;99.90
18898;DHT22;9581;49.484;8.556;2024-02-16T15:15:35;16.00;99.90
18898;DHT22;9581;49.484;8.556;2024-02-16T15:18:01;16.00;99.90
18898;DHT22;9581;49.484;8.556;2024-02-16T15:20:29;15.80;99.90
18898;DHT22;9581;49.484;8.556;2024-02-16T15:22:56;15.90;99.90
18898;DHT22;9581;49.484;8.556;2024-02-16T15:25:23;15.70;99.90
18898;DHT22;9581;49.484;8.556;2024-02-16T15:27:52;15.60;99.90
18898;DHT22;9581;49.484;8.556;2024-02-16T15:30:20;15.40;99.90
18898;DHT22;9581;49.484;8.556;2024-02-16T15:32:46;15.50;99.90
18898;DHT22;9581;49.484;8.556;2024-02-16T15:35:13;15.40;99.90
18898;DHT22;9581;49.484;8.556;2024-02-16T15:37:40;15.30;99.90
18898;DHT22;9581;49.484;8.556;2024-02-16T15:40:08;15.30;99.90
18898;DHT22;9581;49.484;8.556;2024-02-16T15:42:35;15.30;99.90
18898;DHT22;9581;49.484;8.556;2024-02-16T15:45:03;15.20;99.90
18898;DHT22;9581;49.484;8.556;2024-02-16T15:47:30;15.20;99.90